createdAt,value
2018-12-13T00:02:22.587Z,12.27
2018-12-13T00:04:54.271Z,12.77
2018-12-13T00:07:23.973Z,14.10
2018-12-13T00:09:53.633Z,13.70
2018-12-13T00:12:23.370Z,12.90
2018-12-13T00:14:55.345Z,11.87
2018-12-13T00:17:25.216Z,12.10
2018-12-13T00:19:54.885Z,13.03
2018-12-13T00:22:24.507Z,12.53
2018-12-13T00:24:54.106Z,11.67
2018-12-13T00:27:23.807Z,12.80
2018-12-13T00:29:53.593Z,12.80
2018-12-13T00:32:23.268Z,15.20
2018-12-13T00:34:53.125Z,11.70
2018-12-13T00:37:22.834Z,13.53
2018-12-13T00:39:52.599Z,12.70
2018-12-13T00:42:22.878Z,14.70
2018-12-13T00:44:52.528Z,14.87
2018-12-13T00:47:22.316Z,15.37
2018-12-13T00:49:51.988Z,13.10
2018-12-13T00:52:21.616Z,12.33
2018-12-13T00:54:51.994Z,11.63
2018-12-13T00:57:21.629Z,12.47
2018-12-13T00:59:51.360Z,13.00
2018-12-13T01:02:21.722Z,13.60
2018-12-13T01:04:51.456Z,13.93
2018-12-13T01:07:21.103Z,13.80
2018-12-13T01:09:50.820Z,14.10
2018-12-13T01:12:21.032Z,15.83
2018-12-13T01:14:50.776Z,14.77
2018-12-13T01:17:20.490Z,12.90
2018-12-13T01:19:50.110Z,12.43
2018-12-13T01:22:19.774Z,13.27
2018-12-13T01:24:49.429Z,13.70
2018-12-13T01:27:19.665Z,14.77
2018-12-13T01:29:50.085Z,14.47
2018-12-13T01:32:19.705Z,13.53
2018-12-13T01:34:49.339Z,12.30
2018-12-13T01:37:18.979Z,16.30
2018-12-13T01:39:48.682Z,15.13
2018-12-13T01:42:18.331Z,14.03
2018-12-13T01:44:48.051Z,13.97
2018-12-13T01:47:17.700Z,13.50
2018-12-13T01:49:48.180Z,12.43
2018-12-13T01:52:18.005Z,14.60
2018-12-13T01:54:47.615Z,13.90
2018-12-13T01:57:17.286Z,14.23
2018-12-13T01:59:46.978Z,14.00
2018-12-13T02:02:16.681Z,13.63
2018-12-13T02:04:46.327Z,11.80
2018-12-13T02:07:15.970Z,12.80
2018-12-13T02:09:45.682Z,12.00
2018-12-13T02:12:15.749Z,12.33
2018-12-13T02:14:46.394Z,13.27
2018-12-13T02:17:16.006Z,14.93
2018-12-13T02:19:45.648Z,15.30
2018-12-13T02:22:15.449Z,11.87
2018-12-13T02:24:45.096Z,15.47
2018-12-13T02:27:14.891Z,10.47
2018-12-13T02:29:44.536Z,11.33
2018-12-13T02:32:14.671Z,12.57
2018-12-13T02:34:44.361Z,14.10
2018-12-13T02:37:14.023Z,11.40
2018-12-13T02:39:43.701Z,13.37
2018-12-13T02:42:13.437Z,10.67
2018-12-13T02:44:43.117Z,11.67
2018-12-13T02:47:12.849Z,10.73
2018-12-13T02:49:42.467Z,13.00
2018-12-13T02:52:13.532Z,13.87
2018-12-13T02:54:43.492Z,12.97
2018-12-13T02:57:13.151Z,15.00
2018-12-13T02:59:42.879Z,13.60
2018-12-13T03:02:12.640Z,12.17
2018-12-13T03:04:42.597Z,12.73
2018-12-13T03:07:13.888Z,16.27
2018-12-13T03:09:43.939Z,14.00
2018-12-13T03:12:13.566Z,14.53
2018-12-13T03:14:43.261Z,13.60
2018-12-13T03:17:12.905Z,15.30
2018-12-13T03:19:42.564Z,16.00
2018-12-13T03:22:12.207Z,13.13
2018-12-13T03:24:41.817Z,16.37
2018-12-13T03:27:12.808Z,14.70
2018-12-13T03:29:43.062Z,14.93
2018-12-13T03:32:12.712Z,13.47
2018-12-13T03:34:42.508Z,16.20
2018-12-13T03:37:12.128Z,14.03
2018-12-13T03:39:42.347Z,14.13
2018-12-13T03:42:12.077Z,14.63
2018-12-13T03:44:42.308Z,12.97
2018-12-13T03:47:12.002Z,15.77
2018-12-13T03:49:41.708Z,17.90
2018-12-13T03:52:11.402Z,13.70
2018-12-13T03:54:41.241Z,15.30
2018-12-13T03:57:11.028Z,16.50
2018-12-13T03:59:40.664Z,14.83
2018-12-13T04:02:10.268Z,15.97
2018-12-13T04:04:39.902Z,14.27
2018-12-13T04:07:09.648Z,13.73
2018-12-13T04:09:39.288Z,20.77
2018-12-13T04:12:08.945Z,13.53
2018-12-13T04:14:40.249Z,15.70
2018-12-13T04:17:10.438Z,14.00
2018-12-13T04:19:41.154Z,14.33
2018-12-13T04:22:10.878Z,14.40
2018-12-13T04:24:41.074Z,15.23
2018-12-13T04:27:10.737Z,14.67
2018-12-13T04:29:40.347Z,15.03
2018-12-13T04:32:10.006Z,14.30
2018-12-13T04:34:39.673Z,14.40
2018-12-13T04:37:09.911Z,13.60
2018-12-13T04:39:40.173Z,16.17
2018-12-13T04:42:10.755Z,14.90
2018-12-13T04:44:40.397Z,15.57
2018-12-13T04:47:10.031Z,17.23
2018-12-13T04:49:39.805Z,14.10
2018-12-13T04:52:09.657Z,15.27
2018-12-13T04:54:39.322Z,13.47
2018-12-13T04:57:09.584Z,14.10
2018-12-13T04:59:39.290Z,13.50
2018-12-13T05:02:08.942Z,16.30
2018-12-13T05:04:38.705Z,15.60
2018-12-13T05:07:08.329Z,15.43
2018-12-13T05:09:38.113Z,15.67
2018-12-13T05:12:07.733Z,14.33
2018-12-13T05:14:37.379Z,14.50
2018-12-13T05:17:06.976Z,14.23
2018-12-13T05:19:36.639Z,14.87
2018-12-13T05:22:06.265Z,14.03
2018-12-13T05:24:35.937Z,12.77
2018-12-13T05:27:05.570Z,13.93
2018-12-13T05:29:35.214Z,14.37
2018-12-13T05:32:05.043Z,12.23
2018-12-13T05:34:34.661Z,14.33
2018-12-13T05:37:04.405Z,13.73
2018-12-13T05:39:34.132Z,13.57
2018-12-13T05:42:03.790Z,14.53
2018-12-13T05:44:33.462Z,11.10
2018-12-13T05:47:03.326Z,11.93
2018-12-13T05:49:32.976Z,12.17
2018-12-13T05:52:02.605Z,12.67
2018-12-13T05:54:32.402Z,13.30
2018-12-13T05:57:02.211Z,13.13
2018-12-13T05:59:32.112Z,13.33
2018-12-13T06:02:01.976Z,13.07
2018-12-13T06:04:31.704Z,12.53
2018-12-13T06:07:01.355Z,11.07
2018-12-13T06:09:31.685Z,14.33
2018-12-13T06:12:01.334Z,13.00
2018-12-13T06:14:30.998Z,10.60
2018-12-13T06:17:00.729Z,12.43
2018-12-13T06:19:30.428Z,12.93
2018-12-13T06:22:00.211Z,14.87
2018-12-13T06:24:29.828Z,14.90
2018-12-13T06:26:59.571Z,13.27
2018-12-13T06:29:29.282Z,15.93
2018-12-13T06:31:58.973Z,14.73
2018-12-13T06:34:28.630Z,14.60
2018-12-13T06:36:58.905Z,12.63
2018-12-13T06:39:29.219Z,17.20
2018-12-13T06:41:58.919Z,13.80
2018-12-13T06:44:28.855Z,14.13
2018-12-13T06:46:58.591Z,13.17
2018-12-13T06:49:28.236Z,13.03
2018-12-13T06:51:57.867Z,17.97
2018-12-13T06:54:27.630Z,13.90
2018-12-13T06:56:57.913Z,16.17
2018-12-13T06:59:27.556Z,14.93
2018-12-13T07:01:57.370Z,16.43
2018-12-13T07:04:27.172Z,14.70
2018-12-13T07:06:57.570Z,16.03
2018-12-13T07:09:27.216Z,16.10
2018-12-13T07:11:56.876Z,15.83
2018-12-13T07:14:26.608Z,20.33
2018-12-13T07:16:56.262Z,16.00
2018-12-13T07:19:25.892Z,17.27
2018-12-13T07:21:55.627Z,16.77
2018-12-13T07:24:25.410Z,22.57
2018-12-13T07:26:55.047Z,19.10
2018-12-13T07:29:24.700Z,19.13
2018-12-13T07:31:55.142Z,19.07
2018-12-13T07:34:24.807Z,16.73
2018-12-13T07:36:54.463Z,19.00
2018-12-13T07:39:24.136Z,18.23
2018-12-13T07:41:53.767Z,19.03
2018-12-13T07:44:23.402Z,18.87
2018-12-13T07:46:53.302Z,22.97
2018-12-13T07:49:22.938Z,18.50
2018-12-13T07:51:52.638Z,19.03
2018-12-13T07:54:22.247Z,17.50
2018-12-13T07:56:51.901Z,18.97
2018-12-13T07:59:22.150Z,17.90
2018-12-13T08:01:51.947Z,16.90
2018-12-13T08:04:21.747Z,18.37
2018-12-13T08:06:51.511Z,21.03
2018-12-13T08:09:21.198Z,17.57
2018-12-13T08:11:51.025Z,17.87
2018-12-13T08:14:20.669Z,18.40
2018-12-13T08:16:50.892Z,13.90
2018-12-13T08:19:22.585Z,19.73
2018-12-13T08:21:54.221Z,20.50
2018-12-13T08:24:23.857Z,18.93
2018-12-13T08:26:55.565Z,22.67
2018-12-13T08:29:25.262Z,22.73
2018-12-13T08:31:54.911Z,17.90
2018-12-13T08:34:24.599Z,19.33
2018-12-13T08:36:54.266Z,19.47
2018-12-13T08:39:23.974Z,18.70
2018-12-13T08:41:53.934Z,22.30
2018-12-13T08:44:23.595Z,20.40
2018-12-13T08:46:54.190Z,21.80
2018-12-13T08:49:23.868Z,17.77
2018-12-13T08:51:53.534Z,23.73
2018-12-13T08:54:23.234Z,19.47
2018-12-13T08:56:52.960Z,20.20
2018-12-13T08:59:23.419Z,21.97
2018-12-13T09:01:53.109Z,24.13
2018-12-13T09:04:23.761Z,18.47
2018-12-13T09:06:53.597Z,19.57
2018-12-13T09:09:23.503Z,21.27
2018-12-13T09:11:53.228Z,21.13
2018-12-13T09:14:22.924Z,20.63
2018-12-13T09:16:52.592Z,19.77
2018-12-13T09:19:22.430Z,26.03
2018-12-13T09:21:52.088Z,24.80
2018-12-13T09:24:21.702Z,21.73
2018-12-13T09:26:51.405Z,21.90
2018-12-13T09:29:21.057Z,19.70
2018-12-13T09:31:50.820Z,22.27
2018-12-13T09:34:20.474Z,21.10
2018-12-13T09:36:50.199Z,23.33
2018-12-13T09:39:19.928Z,21.63
2018-12-13T09:41:49.646Z,22.87
2018-12-13T09:44:19.358Z,20.60
2018-12-13T09:46:49.189Z,21.03
2018-12-13T09:49:19.030Z,21.40
2018-12-13T09:51:49.501Z,23.57
2018-12-13T09:54:19.131Z,20.77
2018-12-13T09:56:48.811Z,20.67
2018-12-13T09:59:18.540Z,25.63
2018-12-13T10:01:48.820Z,22.10
2018-12-13T10:04:18.482Z,19.37
2018-12-13T10:06:49.069Z,23.40
2018-12-13T10:09:18.899Z,21.20
2018-12-13T10:11:49.013Z,20.80
2018-12-13T10:14:18.747Z,22.17
2018-12-13T10:16:48.477Z,21.60
2018-12-13T10:19:18.136Z,18.93
2018-12-13T10:21:47.774Z,22.50
2018-12-13T10:24:17.443Z,20.67
2018-12-13T10:26:47.105Z,22.97
2018-12-13T10:29:17.497Z,20.33
2018-12-13T10:31:47.159Z,23.97
2018-12-13T10:34:18.566Z,22.07
2018-12-13T10:36:48.815Z,19.40
2018-12-13T10:39:18.502Z,20.77
2018-12-13T10:41:48.921Z,23.80
2018-12-13T10:44:23.410Z,19.37
2018-12-13T10:46:54.159Z,22.23
2018-12-13T10:49:24.141Z,23.10
2018-12-13T10:51:53.851Z,21.57
2018-12-13T10:54:23.864Z,21.67
2018-12-13T10:56:53.493Z,27.07
2018-12-13T10:59:23.294Z,20.67
2018-12-13T11:01:58.220Z,19.23
2018-12-13T11:04:27.842Z,23.13
2018-12-13T11:06:58.001Z,21.90
2018-12-13T11:09:27.770Z,19.03
2018-12-13T11:11:57.546Z,20.43
2018-12-13T11:14:27.158Z,22.33
2018-12-13T11:16:56.929Z,19.43
2018-12-13T11:19:26.560Z,21.53
2018-12-13T11:21:56.317Z,21.43
2018-12-13T11:24:25.965Z,20.27
2018-12-13T11:27:02.761Z,22.27
2018-12-13T11:30:39.985Z,22.13
2018-12-13T11:33:09.766Z,21.43
2018-12-13T11:35:39.512Z,20.10
2018-12-13T11:38:09.834Z,19.77
2018-12-13T11:40:40.324Z,22.43
2018-12-13T11:43:11.413Z,24.63
2018-12-13T11:45:41.112Z,16.63
2018-12-13T11:48:10.845Z,22.50
2018-12-13T11:50:40.494Z,21.00
2018-12-13T11:53:10.175Z,19.50
2018-12-13T11:55:40.645Z,19.98
2018-12-13T11:58:13.476Z,21.33
2018-12-13T12:00:43.162Z,18.23
2018-12-13T12:03:13.402Z,21.05
2018-12-13T12:05:43.158Z,22.70
2018-12-13T12:08:13.113Z,19.00
2018-12-13T12:10:43.092Z,20.45
2018-12-13T12:13:12.839Z,21.07
2018-12-13T12:15:42.534Z,20.43
2018-12-13T12:18:12.211Z,22.90
2018-12-13T12:20:42.068Z,20.05
2018-12-13T12:23:11.835Z,19.62
2018-12-13T12:25:42.256Z,20.60
2018-12-13T12:28:12.907Z,19.35
2018-12-13T12:30:43.671Z,20.77
2018-12-13T12:33:13.381Z,20.70
2018-12-13T12:35:43.080Z,21.30
2018-12-13T12:38:12.754Z,20.13
2018-12-13T12:40:42.633Z,23.57
2018-12-13T12:43:12.855Z,22.15
2018-12-13T12:45:43.071Z,22.15
2018-12-13T12:48:12.692Z,20.43
2018-12-13T12:50:42.398Z,19.30
2018-12-13T12:53:12.053Z,19.23
2018-12-13T12:55:41.821Z,19.50
2018-12-13T12:58:11.460Z,19.33
2018-12-13T13:00:41.176Z,20.37
2018-12-13T13:03:10.839Z,20.37
2018-12-13T13:05:40.591Z,20.77
2018-12-13T13:08:10.284Z,19.53
2018-12-13T13:10:40.913Z,21.70
2018-12-13T13:13:10.708Z,20.40
2018-12-13T13:15:40.366Z,20.85
2018-12-13T13:18:10.028Z,21.63
2018-12-13T13:20:39.782Z,21.12
2018-12-13T13:23:09.479Z,19.37
2018-12-13T13:25:39.901Z,20.68
2018-12-13T13:28:09.650Z,19.60
2018-12-13T13:30:39.328Z,19.70
2018-12-13T13:33:08.977Z,19.75
2018-12-13T13:35:38.656Z,19.75
2018-12-13T13:38:08.374Z,18.12
2018-12-13T13:40:38.038Z,18.17
2018-12-13T13:43:07.726Z,18.55
2018-12-13T13:45:38.018Z,18.12
2018-12-13T13:48:07.752Z,18.10
2018-12-13T13:50:37.521Z,17.27
2018-12-13T13:53:07.174Z,18.07
2018-12-13T13:55:37.363Z,18.92
2018-12-13T13:58:07.209Z,17.33
2018-12-13T14:00:37.962Z,16.82
2018-12-13T14:03:07.653Z,17.07
2018-12-13T14:05:37.428Z,18.12
2018-12-13T14:08:08.273Z,17.82
2018-12-13T14:10:37.970Z,16.97
2018-12-13T14:13:08.365Z,13.88
2018-12-13T14:15:38.321Z,15.33
2018-12-13T14:18:08.165Z,15.05
2018-12-13T14:20:38.515Z,17.35
2018-12-13T14:23:08.342Z,22.00
2018-12-13T14:25:38.074Z,14.50
2018-12-13T14:28:07.748Z,14.87
2018-12-13T14:30:37.540Z,13.72
2018-12-13T14:33:07.439Z,12.63
2018-12-13T14:35:37.806Z,13.90
2018-12-13T14:38:07.555Z,14.17
2018-12-13T14:40:39.891Z,11.70
2018-12-13T14:43:11.515Z,13.53
2018-12-13T14:45:42.466Z,10.95
2018-12-13T14:48:12.216Z,13.57
2018-12-13T14:50:41.883Z,13.10
2018-12-13T14:53:11.574Z,11.17
2018-12-13T14:55:41.234Z,13.03
2018-12-13T14:58:11.013Z,11.12
2018-12-13T15:00:41.620Z,14.07
2018-12-13T15:03:11.439Z,12.10
2018-12-13T15:05:41.243Z,10.38
2018-12-13T15:08:11.009Z,11.47
2018-12-13T15:10:40.735Z,10.43
2018-12-13T15:13:10.688Z,12.95
2018-12-13T15:15:40.486Z,11.53
2018-12-13T15:18:10.182Z,10.68
2018-12-13T15:20:40.035Z,11.65
2018-12-13T15:23:09.675Z,12.35
2018-12-13T15:25:39.463Z,12.18
2018-12-13T15:28:09.205Z,12.05
2018-12-13T15:30:39.036Z,10.03
2018-12-13T15:33:08.766Z,11.07
2018-12-13T15:35:38.494Z,11.38
2018-12-13T15:38:08.221Z,13.53
2018-12-13T15:40:38.672Z,11.93
2018-12-13T15:43:08.449Z,12.50
2018-12-13T15:45:38.329Z,12.35
2018-12-13T15:48:08.197Z,11.23
2018-12-13T15:50:37.864Z,11.15
2018-12-13T15:53:07.605Z,12.63
2018-12-13T15:55:38.017Z,11.00
2018-12-13T15:58:07.658Z,11.03
2018-12-13T16:00:37.410Z,11.68
2018-12-13T16:03:07.479Z,12.40
2018-12-13T16:05:37.703Z,10.03
2018-12-13T16:08:07.614Z,11.45
2018-12-13T16:10:37.338Z,12.80
2018-12-13T16:13:07.144Z,12.75
2018-12-13T16:15:37.387Z,10.32
2018-12-13T16:18:07.136Z,11.40
2018-12-13T16:20:36.812Z,10.77
2018-12-13T16:23:06.580Z,9.98
2018-12-13T16:25:36.630Z,9.95
2018-12-13T16:28:06.397Z,10.40
2018-12-13T16:30:37.147Z,11.08
2018-12-13T16:33:07.730Z,10.55
2018-12-13T16:35:38.564Z,11.00
2018-12-13T16:38:09.586Z,10.43
2018-12-13T16:40:40.017Z,9.85
2018-12-13T16:43:09.849Z,10.30
2018-12-13T16:45:39.685Z,10.65
2018-12-13T16:48:11.039Z,11.60
2018-12-13T16:50:40.799Z,10.75
2018-12-13T16:53:10.521Z,10.25
2018-12-13T16:55:41.238Z,10.25
2018-12-13T16:58:10.973Z,9.33
2018-12-13T17:00:40.694Z,11.38
2018-12-13T17:03:21.474Z,11.65
2018-12-13T17:05:53.542Z,10.88
2018-12-13T17:08:23.606Z,11.77
2018-12-13T17:10:53.458Z,11.75
2018-12-13T17:13:24.196Z,11.20
2018-12-13T17:15:54.562Z,10.93
2018-12-13T17:18:24.708Z,10.00
2018-12-13T17:20:55.814Z,11.80
2018-12-13T17:23:25.605Z,13.18
2018-12-13T17:25:55.526Z,11.38
2018-12-13T17:28:25.274Z,14.68
2018-12-13T17:30:55.161Z,13.22
2018-12-13T17:33:25.225Z,12.60
2018-12-13T17:35:55.625Z,9.87
2018-12-13T17:38:26.569Z,10.05
2018-12-13T17:40:56.244Z,10.45
2018-12-13T17:43:26.113Z,11.37
2018-12-13T17:45:55.994Z,11.70
2018-12-13T17:48:27.002Z,10.98
2018-12-13T17:50:56.800Z,11.57
2018-12-13T17:53:26.628Z,11.08
2018-12-13T17:55:56.477Z,11.45
2018-12-13T17:58:26.387Z,10.55
2018-12-13T18:00:56.229Z,12.40
2018-12-13T18:03:26.256Z,13.80
2018-12-13T18:05:56.020Z,12.85
2018-12-13T18:08:25.874Z,12.80
2018-12-13T18:10:55.608Z,11.53
2018-12-13T18:13:25.469Z,11.28
2018-12-13T18:15:56.188Z,12.33
2018-12-13T18:18:26.559Z,11.43
2018-12-13T18:20:56.383Z,11.68
2018-12-13T18:23:26.204Z,12.88
2018-12-13T18:25:56.014Z,13.72
2018-12-13T18:28:26.893Z,12.35
2018-12-13T18:30:56.937Z,12.07
2018-12-13T18:33:26.695Z,12.20
2018-12-13T18:35:56.456Z,13.48
2018-12-13T18:38:26.275Z,11.93
2018-12-13T18:40:56.066Z,11.00
2018-12-13T18:43:25.917Z,12.68
2018-12-13T18:45:55.598Z,15.13
2018-12-13T18:48:25.520Z,14.23
2018-12-13T18:50:56.159Z,13.08
2018-12-13T18:53:26.711Z,12.57
2018-12-13T18:55:57.090Z,13.25
2018-12-13T18:58:28.026Z,12.90
2018-12-13T19:00:58.345Z,12.23
2018-12-13T19:03:28.201Z,11.63
2018-12-13T19:05:58.316Z,11.18
2018-12-13T19:08:28.566Z,12.80
2018-12-13T19:10:58.569Z,11.75
2018-12-13T19:13:28.518Z,12.20
2018-12-13T19:16:01.426Z,12.25
2018-12-13T19:18:31.425Z,12.13
2018-12-13T19:21:01.405Z,9.73
2018-12-13T19:23:31.418Z,10.20
2018-12-13T19:26:01.190Z,11.23
2018-12-13T19:28:31.732Z,11.70
2018-12-13T19:31:01.561Z,11.53
2018-12-13T19:33:31.581Z,12.50
2018-12-13T19:36:01.288Z,10.93
2018-12-13T19:38:32.540Z,10.00
2018-12-13T19:41:02.367Z,12.67
2018-12-13T19:43:32.164Z,11.00
2018-12-13T19:46:02.337Z,9.23
2018-12-13T19:48:32.221Z,11.50
2018-12-13T19:51:03.406Z,12.07
2018-12-13T19:53:33.407Z,11.87
2018-12-13T19:56:03.334Z,9.73
2018-12-13T19:58:33.203Z,12.17
2018-12-13T20:01:03.230Z,11.80
2018-12-13T20:03:34.045Z,12.97
2018-12-13T20:06:04.006Z,10.47
2018-12-13T20:08:33.790Z,12.07
2018-12-13T20:11:03.582Z,12.10
2018-12-13T20:13:33.408Z,11.53
2018-12-13T20:16:04.221Z,13.53
2018-12-13T20:18:34.146Z,14.50
2018-12-13T20:21:04.087Z,14.83
2018-12-13T20:23:34.013Z,13.90
2018-12-13T20:26:04.683Z,12.93
2018-12-13T20:28:34.466Z,11.77
2018-12-13T20:31:04.402Z,15.07
2018-12-13T20:33:34.155Z,13.97
2018-12-13T20:36:04.045Z,14.20
2018-12-13T20:38:33.836Z,14.90
2018-12-13T20:41:03.693Z,15.97
2018-12-13T20:43:33.524Z,17.07
2018-12-13T20:46:03.614Z,12.60
2018-12-13T20:48:33.427Z,15.50
2018-12-13T20:51:03.824Z,13.80
2018-12-13T20:53:33.742Z,12.67
2018-12-13T20:56:04.538Z,13.60
2018-12-13T20:58:34.375Z,12.83
2018-12-13T21:01:05.051Z,13.10
2018-12-13T21:03:35.900Z,12.00
2018-12-13T21:06:05.691Z,15.40
2018-12-13T21:08:36.089Z,12.07
2018-12-13T21:11:07.583Z,13.23
2018-12-13T21:13:37.609Z,13.73
2018-12-13T21:16:08.270Z,14.37
2018-12-13T21:18:38.092Z,14.23
2018-12-13T21:21:08.018Z,14.80
2018-12-13T21:23:37.755Z,14.17
2018-12-13T21:26:07.514Z,14.10
2018-12-13T21:28:37.178Z,13.53
2018-12-13T21:31:07.058Z,11.87
2018-12-13T21:33:38.249Z,11.57
2018-12-13T21:36:08.274Z,16.07
2018-12-13T21:38:38.713Z,13.67
2018-12-13T21:41:13.668Z,13.40
2018-12-13T21:43:40.317Z,12.73
2018-12-13T21:46:10.293Z,13.87
2018-12-13T21:48:40.231Z,13.27
2018-12-13T21:51:09.928Z,14.20
2018-12-13T21:53:40.644Z,14.17
2018-12-13T21:56:10.346Z,13.87
2018-12-13T21:58:39.997Z,15.40
2018-12-13T22:01:09.760Z,14.03
2018-12-13T22:03:39.473Z,14.67
2018-12-13T22:06:09.295Z,13.57
2018-12-13T22:08:39.148Z,15.07
2018-12-13T22:11:08.830Z,13.30
2018-12-13T22:13:38.527Z,14.90
2018-12-13T22:16:08.214Z,13.43
2018-12-13T22:18:37.877Z,12.53
2018-12-13T22:21:07.807Z,13.13
2018-12-13T22:23:37.496Z,14.07
2018-12-13T22:26:07.185Z,14.77
2018-12-13T22:28:36.815Z,14.93
2018-12-13T22:31:06.574Z,16.40
2018-12-13T22:33:37.840Z,16.27
2018-12-13T22:36:08.290Z,15.83
2018-12-13T22:38:38.002Z,14.63
2018-12-13T22:41:07.678Z,11.83
2018-12-13T22:43:38.517Z,13.23
2018-12-13T22:46:08.214Z,13.70
2018-12-13T22:48:38.025Z,15.53
2018-12-13T22:51:08.561Z,15.07
2018-12-13T22:53:38.314Z,14.73
2018-12-13T22:56:08.057Z,14.30
2018-12-13T22:58:37.685Z,12.70
2018-12-13T23:01:07.576Z,14.73
2018-12-13T23:03:39.250Z,13.10
2018-12-13T23:06:08.938Z,14.90
2018-12-13T23:08:38.688Z,14.90
2018-12-13T23:11:09.317Z,15.43
2018-12-13T23:13:39.005Z,14.23
2018-12-13T23:16:08.781Z,15.57
2018-12-13T23:18:38.437Z,14.30
2018-12-13T23:21:08.085Z,12.20
2018-12-13T23:23:37.727Z,13.10
2018-12-13T23:26:07.414Z,12.57
2018-12-13T23:28:37.094Z,13.10
2018-12-13T23:31:06.802Z,11.93
2018-12-13T23:33:36.494Z,13.83
2018-12-13T23:36:06.209Z,17.27
2018-12-13T23:38:35.827Z,15.17
2018-12-13T23:41:05.572Z,13.87
2018-12-13T23:43:35.234Z,15.83
2018-12-13T23:46:05.448Z,14.07
2018-12-13T23:48:36.001Z,16.43
2018-12-13T23:51:06.319Z,15.67
2018-12-13T23:53:36.929Z,13.77
2018-12-13T23:56:06.840Z,14.77
2018-12-13T23:58:36.882Z,14.47
